<?xml version="1.0" encoding="UTF-8"?>
<gpx version="1.1" creator="GPSBabel - http://www.gpsbabel.org" xmlns="http://www.topografix.com/GPX/1/1" xmlns:xsi="http://www.w3.org/2001/XMLSchema-instance">
  <metadata>
    <time>2017-03-10T17:15:37.816Z</time>
    <bounds minlat="39.383910000" minlon="-5.392402000" maxlat="39.452604000" maxlon="-5.327349000"/>
  </metadata>
  <wpt lat="39.383910000" lon="-5.390115000">
    <ele>595.900000</ele>
    <time>2013-05-01T07:43:35Z</time>
    <name>CANAMERO</name>
    <cmt>CANAMERO</cmt>
    <desc>CANAMERO</desc>
  </wpt>
  <wpt lat="39.390589000" lon="-5.392402000">
    <ele>594.100000</ele>
    <time>2013-05-01T08:18:49Z</time>
    <name>CUEVA DE ALVAREZ</name>
    <cmt>CUEVA DE ALVAREZ</cmt>
    <desc>CUEVA DE ALVAREZ</desc>
  </wpt>
  <wpt lat="39.392045000" lon="-5.389886000">
    <ele>627.900000</ele>
    <time>2013-05-01T08:52:30Z</time>
    <name>PRESA DEL CANCHO DEL FRESNO</name>
    <cmt>PRESA DEL CANCHO DEL FRESNO</cmt>
    <desc>PRESA DEL CANCHO DEL FRESNO</desc>
  </wpt>
  <wpt lat="39.407306000" lon="-5.379072000">
    <ele>677.900000</ele>
    <time>2013-05-01T10:02:50Z</time>
    <name>CRUZ DE ANDRADE</name>
    <cmt>CRUZ DE ANDRADE</cmt>
    <desc>CRUZ DE ANDRADE</desc>
  </wpt>
  <wpt lat="39.412575000" lon="-5.370545000">
    <ele>776.000000</ele>
    <time>2013-05-01T10:38:50Z</time>
    <name>MELONAR DE LOS FRAILES</name>
    <cmt>MELONAR DE LOS FRAILES</cmt>
    <desc>MELONAR DE LOS FRAILES</desc>
  </wpt>
  <wpt lat="39.427070000" lon="-5.359776000">
    <ele>960.100000</ele>
    <time>2013-05-01T11:40:12Z</time>
    <name>CASTANO DEL ABUELO</name>
    <cmt>CASTANO DEL ABUELO</cmt>
    <desc>CASTANO DEL ABUELO</desc>
  </wpt>
  <wpt lat="39.438145000" lon="-5.340901000">
    <ele>768.100000</ele>
    <time>2013-05-01T13:14:42Z</time>
    <name>ERMITA DE SANTA CATALINA</name>
    <cmt>ERMITA DE SANTA CATALINA</cmt>
    <desc>ERMITA DE SANTA CATALINA</desc>
  </wpt>
  <wpt lat="39.446974000" lon="-5.329342000">
    <ele>565.100000</ele>
    <time>2013-05-01T14:22:33Z</time>
    <name>FUENTE</name>
    <cmt>Fuente de Agua potable</cmt>
    <desc>Fuente de Agua potable</desc>
  </wpt>
  <wpt lat="39.444400000" lon="-5.330661000">
    <ele>555.000000</ele>
    <time>2013-05-01T14:33:08Z</time>
    <name>PUENTE DE CANAMERO</name>
    <cmt>PUENTE DE CANAMERO</cmt>
    <desc>PUENTE DE CANAMERO</desc>
  </wpt>
  <wpt lat="39.452084000" lon="-5.327349000">
    <ele>637.900000</ele>
    <time>2013-05-01T14:54:18Z</time>
    <name>PLAZA DE GUADALUPE</name>
    <cmt>PLAZA DE GUADALUPE</cmt>
    <desc>PLAZA DE GUADALUPE</desc>
  </wpt>
  <trk>
    <name>PR CC 242 'Isabel la Catolica' (Cañamero)</name>
    <desc>PR-CC 242 Isabel la Catolica</desc>
    <cmt>PR-CC 242 Isabel la Catolica</cmt>
    <trkseg>
      <trkpt lat="39.383914000" lon="-5.390125000">
        <ele>596.600000</ele>
        <time>2013-05-01T05:54:50Z</time>
      </trkpt>
      <trkpt lat="39.384276000" lon="-5.390168000">
        <ele>593.800000</ele>
        <time>2013-05-01T05:56:15Z</time>
      </trkpt>
      <trkpt lat="39.384739000" lon="-5.390478000">
        <ele>585.100000</ele>
        <time>2013-05-01T05:57:57Z</time>
      </trkpt>
      <trkpt lat="39.385015000" lon="-5.390414000">
        <ele>583.200000</ele>
        <time>2013-05-01T05:58:14Z</time>
      </trkpt>
      <trkpt lat="39.385788000" lon="-5.389436000">
        <ele>571.700000</ele>
        <time>2013-05-01T06:00:13Z</time>
      </trkpt>
      <trkpt lat="39.386737000" lon="-5.389091000">
        <ele>572.600000</ele>
        <time>2013-05-01T06:03:03Z</time>
      </trkpt>
      <trkpt lat="39.388814000" lon="-5.390118000">
        <ele>569.200000</ele>
        <time>2013-05-01T06:09:51Z</time>
      </trkpt>
      <trkpt lat="39.388971000" lon="-5.389810000">
        <ele>571.700000</ele>
        <time>2013-05-01T06:10:42Z</time>
      </trkpt>
      <trkpt lat="39.388869000" lon="-5.389602000">
        <ele>580.300000</ele>
        <time>2013-05-01T06:11:50Z</time>
      </trkpt>
      <trkpt lat="39.390592000" lon="-5.390375000">
        <ele>606.200000</ele>
        <time>2013-05-01T06:16:39Z</time>
      </trkpt>
      <trkpt lat="39.391794000" lon="-5.390085000">
        <ele>626.000000</ele>
        <time>2013-05-01T06:20:03Z</time>
      </trkpt>
      <trkpt lat="39.392079000" lon="-5.389859000">
        <ele>627.900000</ele>
        <time>2013-05-01T06:21:45Z</time>
      </trkpt>
      <trkpt lat="39.392817000" lon="-5.387947000">
        <ele>627.900000</ele>
        <time>2013-05-01T06:24:52Z</time>
      </trkpt>
      <trkpt lat="39.393554000" lon="-5.387034000">
        <ele>628.800000</ele>
        <time>2013-05-01T06:26:34Z</time>
      </trkpt>
      <trkpt lat="39.393981000" lon="-5.386231000">
        <ele>628.800000</ele>
        <time>2013-05-01T06:27:25Z</time>
      </trkpt>
      <trkpt lat="39.393937000" lon="-5.384653000">
        <ele>628.300000</ele>
        <time>2013-05-01T06:28:50Z</time>
      </trkpt>
      <trkpt lat="39.393758000" lon="-5.383856000">
        <ele>628.300000</ele>
        <time>2013-05-01T06:29:58Z</time>
      </trkpt>
      <trkpt lat="39.393850000" lon="-5.383668000">
        <ele>628.800000</ele>
        <time>2013-05-01T06:30:15Z</time>
      </trkpt>
      <trkpt lat="39.395478000" lon="-5.385302000">
        <ele>626.900000</ele>
        <time>2013-05-01T06:32:48Z</time>
      </trkpt>
      <trkpt lat="39.396882000" lon="-5.386344000">
        <ele>626.900000</ele>
        <time>2013-05-01T06:34:30Z</time>
      </trkpt>
      <trkpt lat="39.397507000" lon="-5.386593000">
        <ele>626.900000</ele>
        <time>2013-05-01T06:35:38Z</time>
      </trkpt>
      <trkpt lat="39.398401000" lon="-5.386595000">
        <ele>626.400000</ele>
        <time>2013-05-01T06:36:46Z</time>
      </trkpt>
      <trkpt lat="39.398649000" lon="-5.386356000">
        <ele>626.400000</ele>
        <time>2013-05-01T06:37:03Z</time>
      </trkpt>
      <trkpt lat="39.398798000" lon="-5.385670000">
        <ele>626.400000</ele>
        <time>2013-05-01T06:37:54Z</time>
      </trkpt>
      <trkpt lat="39.398564000" lon="-5.383599000">
        <ele>626.400000</ele>
        <time>2013-05-01T06:39:53Z</time>
      </trkpt>
      <trkpt lat="39.398162000" lon="-5.382357000">
        <ele>627.400000</ele>
        <time>2013-05-01T06:41:01Z</time>
      </trkpt>
      <trkpt lat="39.397544000" lon="-5.381146000">
        <ele>626.900000</ele>
        <time>2013-05-01T06:42:26Z</time>
      </trkpt>
      <trkpt lat="39.398131000" lon="-5.381206000">
        <ele>625.500000</ele>
        <time>2013-05-01T06:43:34Z</time>
      </trkpt>
      <trkpt lat="39.398349000" lon="-5.381027000">
        <ele>625.500000</ele>
        <time>2013-05-01T06:43:51Z</time>
      </trkpt>
      <trkpt lat="39.398514000" lon="-5.379370000">
        <ele>625.500000</ele>
        <time>2013-05-01T06:45:16Z</time>
      </trkpt>
      <trkpt lat="39.398706000" lon="-5.379220000">
        <ele>625.500000</ele>
        <time>2013-05-01T06:45:33Z</time>
      </trkpt>
      <trkpt lat="39.399355000" lon="-5.379264000">
        <ele>625.500000</ele>
        <time>2013-05-01T06:46:41Z</time>
      </trkpt>
      <trkpt lat="39.400037000" lon="-5.379048000">
        <ele>624.500000</ele>
        <time>2013-05-01T06:47:49Z</time>
      </trkpt>
      <trkpt lat="39.399915000" lon="-5.380550000">
        <ele>625.000000</ele>
        <time>2013-05-01T06:50:05Z</time>
      </trkpt>
      <trkpt lat="39.400361000" lon="-5.381022000">
        <ele>626.400000</ele>
        <time>2013-05-01T06:50:56Z</time>
      </trkpt>
      <trkpt lat="39.401060000" lon="-5.382213000">
        <ele>627.900000</ele>
        <time>2013-05-01T06:52:38Z</time>
      </trkpt>
      <trkpt lat="39.401628000" lon="-5.382825000">
        <ele>626.000000</ele>
        <time>2013-05-01T06:54:20Z</time>
      </trkpt>
      <trkpt lat="39.402585000" lon="-5.383394000">
        <ele>624.500000</ele>
        <time>2013-05-01T06:55:28Z</time>
      </trkpt>
      <trkpt lat="39.403717000" lon="-5.384339000">
        <ele>625.500000</ele>
        <time>2013-05-01T06:57:44Z</time>
      </trkpt>
      <trkpt lat="39.404565000" lon="-5.384509000">
        <ele>626.900000</ele>
        <time>2013-05-01T06:59:09Z</time>
      </trkpt>
      <trkpt lat="39.404557000" lon="-5.384811000">
        <ele>627.400000</ele>
        <time>2013-05-01T07:00:34Z</time>
      </trkpt>
      <trkpt lat="39.404680000" lon="-5.384743000">
        <ele>627.400000</ele>
        <time>2013-05-01T07:00:51Z</time>
      </trkpt>
      <trkpt lat="39.405025000" lon="-5.384905000">
        <ele>632.700000</ele>
        <time>2013-05-01T07:03:24Z</time>
      </trkpt>
      <trkpt lat="39.405748000" lon="-5.384313000">
        <ele>637.000000</ele>
        <time>2013-05-01T07:05:40Z</time>
      </trkpt>
      <trkpt lat="39.405689000" lon="-5.384005000">
        <ele>640.900000</ele>
        <time>2013-05-01T07:07:05Z</time>
      </trkpt>
      <trkpt lat="39.406501000" lon="-5.383051000">
        <ele>654.800000</ele>
        <time>2013-05-01T07:09:38Z</time>
      </trkpt>
      <trkpt lat="39.407016000" lon="-5.381662000">
        <ele>663.000000</ele>
        <time>2013-05-01T07:13:02Z</time>
      </trkpt>
      <trkpt lat="39.407104000" lon="-5.379748000">
        <ele>672.100000</ele>
        <time>2013-05-01T07:15:35Z</time>
      </trkpt>
      <trkpt lat="39.407437000" lon="-5.378673000">
        <ele>674.500000</ele>
        <time>2013-05-01T07:17:51Z</time>
      </trkpt>
      <trkpt lat="39.407335000" lon="-5.377846000">
        <ele>669.700000</ele>
        <time>2013-05-01T07:19:16Z</time>
      </trkpt>
      <trkpt lat="39.408294000" lon="-5.376159000">
        <ele>679.300000</ele>
        <time>2013-05-01T07:23:14Z</time>
      </trkpt>
      <trkpt lat="39.408443000" lon="-5.375555000">
        <ele>692.800000</ele>
        <time>2013-05-01T07:24:39Z</time>
      </trkpt>
      <trkpt lat="39.409862000" lon="-5.373819000">
        <ele>732.200000</ele>
        <time>2013-05-01T07:29:45Z</time>
      </trkpt>
      <trkpt lat="39.410070000" lon="-5.373325000">
        <ele>737.000000</ele>
        <time>2013-05-01T07:30:36Z</time>
      </trkpt>
      <trkpt lat="39.411428000" lon="-5.372535000">
        <ele>756.200000</ele>
        <time>2013-05-01T07:33:43Z</time>
      </trkpt>
      <trkpt lat="39.412734000" lon="-5.370264000">
        <ele>779.800000</ele>
        <time>2013-05-01T07:38:32Z</time>
      </trkpt>
      <trkpt lat="39.413876000" lon="-5.369267000">
        <ele>785.000000</ele>
        <time>2013-05-01T07:41:39Z</time>
      </trkpt>
      <trkpt lat="39.414204000" lon="-5.368206000">
        <ele>794.200000</ele>
        <time>2013-05-01T07:43:21Z</time>
      </trkpt>
      <trkpt lat="39.414543000" lon="-5.367608000">
        <ele>799.000000</ele>
        <time>2013-05-01T07:44:46Z</time>
      </trkpt>
      <trkpt lat="39.415969000" lon="-5.365674000">
        <ele>830.700000</ele>
        <time>2013-05-01T07:48:44Z</time>
      </trkpt>
      <trkpt lat="39.416938000" lon="-5.365207000">
        <ele>849.900000</ele>
        <time>2013-05-01T07:51:17Z</time>
      </trkpt>
      <trkpt lat="39.417291000" lon="-5.364547000">
        <ele>853.300000</ele>
        <time>2013-05-01T07:52:25Z</time>
      </trkpt>
      <trkpt lat="39.419923000" lon="-5.362058000">
        <ele>878.300000</ele>
        <time>2013-05-01T07:58:22Z</time>
      </trkpt>
      <trkpt lat="39.420927000" lon="-5.361856000">
        <ele>884.100000</ele>
        <time>2013-05-01T07:59:30Z</time>
      </trkpt>
      <trkpt lat="39.421894000" lon="-5.361956000">
        <ele>891.300000</ele>
        <time>2013-05-01T08:01:12Z</time>
      </trkpt>
      <trkpt lat="39.423588000" lon="-5.360725000">
        <ele>914.800000</ele>
        <time>2013-05-01T08:04:53Z</time>
      </trkpt>
      <trkpt lat="39.424124000" lon="-5.359832000">
        <ele>926.400000</ele>
        <time>2013-05-01T08:06:52Z</time>
      </trkpt>
      <trkpt lat="39.424504000" lon="-5.359511000">
        <ele>932.100000</ele>
        <time>2013-05-01T08:07:43Z</time>
      </trkpt>
      <trkpt lat="39.425829000" lon="-5.359783000">
        <ele>946.100000</ele>
        <time>2013-05-01T08:09:59Z</time>
      </trkpt>
      <trkpt lat="39.426885000" lon="-5.359624000">
        <ele>959.500000</ele>
        <time>2013-05-01T08:12:15Z</time>
      </trkpt>
      <trkpt lat="39.426762000" lon="-5.358678000">
        <ele>968.200000</ele>
        <time>2013-05-01T08:14:14Z</time>
      </trkpt>
      <trkpt lat="39.426457000" lon="-5.358270000">
        <ele>972.000000</ele>
        <time>2013-05-01T08:15:39Z</time>
      </trkpt>
      <trkpt lat="39.426625000" lon="-5.358095000">
        <ele>967.200000</ele>
        <time>2013-05-01T08:16:30Z</time>
      </trkpt>
      <trkpt lat="39.426281000" lon="-5.357247000">
        <ele>972.000000</ele>
        <time>2013-05-01T08:17:38Z</time>
      </trkpt>
      <trkpt lat="39.426468000" lon="-5.356336000">
        <ele>974.400000</ele>
        <time>2013-05-01T08:18:29Z</time>
      </trkpt>
      <trkpt lat="39.427380000" lon="-5.356119000">
        <ele>978.800000</ele>
        <time>2013-05-01T08:19:54Z</time>
      </trkpt>
      <trkpt lat="39.428192000" lon="-5.355539000">
        <ele>979.200000</ele>
        <time>2013-05-01T08:22:10Z</time>
      </trkpt>
      <trkpt lat="39.428355000" lon="-5.355162000">
        <ele>974.000000</ele>
        <time>2013-05-01T08:22:44Z</time>
      </trkpt>
      <trkpt lat="39.428293000" lon="-5.353868000">
        <ele>963.400000</ele>
        <time>2013-05-01T08:25:00Z</time>
      </trkpt>
      <trkpt lat="39.429328000" lon="-5.352903000">
        <ele>957.600000</ele>
        <time>2013-05-01T08:26:25Z</time>
      </trkpt>
      <trkpt lat="39.429951000" lon="-5.351841000">
        <ele>956.600000</ele>
        <time>2013-05-01T08:27:50Z</time>
      </trkpt>
      <trkpt lat="39.431522000" lon="-5.351172000">
        <ele>942.200000</ele>
        <time>2013-05-01T08:30:06Z</time>
      </trkpt>
      <trkpt lat="39.431923000" lon="-5.351171000">
        <ele>934.500000</ele>
        <time>2013-05-01T08:30:57Z</time>
      </trkpt>
      <trkpt lat="39.432496000" lon="-5.350780000">
        <ele>924.000000</ele>
        <time>2013-05-01T08:32:05Z</time>
      </trkpt>
      <trkpt lat="39.432742000" lon="-5.350232000">
        <ele>916.700000</ele>
        <time>2013-05-01T08:32:56Z</time>
      </trkpt>
      <trkpt lat="39.432539000" lon="-5.349486000">
        <ele>907.600000</ele>
        <time>2013-05-01T08:34:38Z</time>
      </trkpt>
      <trkpt lat="39.432601000" lon="-5.349018000">
        <ele>899.900000</ele>
        <time>2013-05-01T08:35:29Z</time>
      </trkpt>
      <trkpt lat="39.433039000" lon="-5.348673000">
        <ele>890.800000</ele>
        <time>2013-05-01T08:37:11Z</time>
      </trkpt>
      <trkpt lat="39.433232000" lon="-5.347891000">
        <ele>885.000000</ele>
        <time>2013-05-01T08:38:02Z</time>
      </trkpt>
      <trkpt lat="39.434245000" lon="-5.346040000">
        <ele>851.400000</ele>
        <time>2013-05-01T08:42:00Z</time>
      </trkpt>
      <trkpt lat="39.434483000" lon="-5.345336000">
        <ele>839.800000</ele>
        <time>2013-05-01T08:43:08Z</time>
      </trkpt>
      <trkpt lat="39.435255000" lon="-5.344151000">
        <ele>818.200000</ele>
        <time>2013-05-01T08:46:15Z</time>
      </trkpt>
      <trkpt lat="39.435953000" lon="-5.342231000">
        <ele>787.000000</ele>
        <time>2013-05-01T08:50:13Z</time>
      </trkpt>
      <trkpt lat="39.437428000" lon="-5.341731000">
        <ele>766.800000</ele>
        <time>2013-05-01T08:53:03Z</time>
      </trkpt>
      <trkpt lat="39.437955000" lon="-5.340717000">
        <ele>765.400000</ele>
        <time>2013-05-01T08:55:19Z</time>
      </trkpt>
      <trkpt lat="39.438457000" lon="-5.340276000">
        <ele>761.500000</ele>
        <time>2013-05-01T08:56:27Z</time>
      </trkpt>
      <trkpt lat="39.439094000" lon="-5.339990000">
        <ele>752.400000</ele>
        <time>2013-05-01T08:57:18Z</time>
      </trkpt>
      <trkpt lat="39.439469000" lon="-5.340169000">
        <ele>747.600000</ele>
        <time>2013-05-01T08:57:52Z</time>
      </trkpt>
      <trkpt lat="39.439685000" lon="-5.339307000">
        <ele>734.100000</ele>
        <time>2013-05-01T08:59:51Z</time>
      </trkpt>
      <trkpt lat="39.440574000" lon="-5.338510000">
        <ele>726.900000</ele>
        <time>2013-05-01T09:02:24Z</time>
      </trkpt>
      <trkpt lat="39.441189000" lon="-5.338338000">
        <ele>720.600000</ele>
        <time>2013-05-01T09:03:32Z</time>
      </trkpt>
      <trkpt lat="39.441917000" lon="-5.338714000">
        <ele>712.500000</ele>
        <time>2013-05-01T09:04:40Z</time>
      </trkpt>
      <trkpt lat="39.442002000" lon="-5.338492000">
        <ele>709.100000</ele>
        <time>2013-05-01T09:04:57Z</time>
      </trkpt>
      <trkpt lat="39.441802000" lon="-5.337707000">
        <ele>701.400000</ele>
        <time>2013-05-01T09:06:22Z</time>
      </trkpt>
      <trkpt lat="39.441087000" lon="-5.337055000">
        <ele>692.300000</ele>
        <time>2013-05-01T09:07:47Z</time>
      </trkpt>
      <trkpt lat="39.440531000" lon="-5.336180000">
        <ele>680.300000</ele>
        <time>2013-05-01T09:08:55Z</time>
      </trkpt>
      <trkpt lat="39.440415000" lon="-5.335200000">
        <ele>668.700000</ele>
        <time>2013-05-01T09:10:20Z</time>
      </trkpt>
      <trkpt lat="39.440439000" lon="-5.332078000">
        <ele>651.400000</ele>
        <time>2013-05-01T09:13:44Z</time>
      </trkpt>
      <trkpt lat="39.439536000" lon="-5.331382000">
        <ele>638.900000</ele>
        <time>2013-05-01T09:15:26Z</time>
      </trkpt>
      <trkpt lat="39.439391000" lon="-5.330973000">
        <ele>634.100000</ele>
        <time>2013-05-01T09:16:34Z</time>
      </trkpt>
      <trkpt lat="39.439397000" lon="-5.330286000">
        <ele>625.500000</ele>
        <time>2013-05-01T09:17:25Z</time>
      </trkpt>
      <trkpt lat="39.439696000" lon="-5.329634000">
        <ele>616.300000</ele>
        <time>2013-05-01T09:18:16Z</time>
      </trkpt>
      <trkpt lat="39.439969000" lon="-5.329328000">
        <ele>608.200000</ele>
        <time>2013-05-01T09:19:07Z</time>
      </trkpt>
      <trkpt lat="39.440690000" lon="-5.329153000">
        <ele>599.500000</ele>
        <time>2013-05-01T09:20:15Z</time>
      </trkpt>
      <trkpt lat="39.440892000" lon="-5.328919000">
        <ele>597.100000</ele>
        <time>2013-05-01T09:20:32Z</time>
      </trkpt>
      <trkpt lat="39.442261000" lon="-5.328565000">
        <ele>576.900000</ele>
        <time>2013-05-01T09:23:39Z</time>
      </trkpt>
      <trkpt lat="39.442663000" lon="-5.328726000">
        <ele>572.100000</ele>
        <time>2013-05-01T09:24:13Z</time>
      </trkpt>
      <trkpt lat="39.443452000" lon="-5.330120000">
        <ele>561.600000</ele>
        <time>2013-05-01T09:27:03Z</time>
      </trkpt>
      <trkpt lat="39.444477000" lon="-5.330700000">
        <ele>554.800000</ele>
        <time>2013-05-01T09:30:10Z</time>
      </trkpt>
      <trkpt lat="39.445048000" lon="-5.329952000">
        <ele>561.600000</ele>
        <time>2013-05-01T09:31:35Z</time>
      </trkpt>
      <trkpt lat="39.445111000" lon="-5.328806000">
        <ele>556.700000</ele>
        <time>2013-05-01T09:34:42Z</time>
      </trkpt>
      <trkpt lat="39.446600000" lon="-5.329073000">
        <ele>564.400000</ele>
        <time>2013-05-01T09:36:41Z</time>
      </trkpt>
      <trkpt lat="39.447393000" lon="-5.329522000">
        <ele>570.700000</ele>
        <time>2013-05-01T09:38:06Z</time>
      </trkpt>
      <trkpt lat="39.448064000" lon="-5.328997000">
        <ele>577.400000</ele>
        <time>2013-05-01T09:39:14Z</time>
      </trkpt>
      <trkpt lat="39.448567000" lon="-5.329037000">
        <ele>580.300000</ele>
        <time>2013-05-01T09:39:48Z</time>
      </trkpt>
      <trkpt lat="39.449809000" lon="-5.330053000">
        <ele>590.900000</ele>
        <time>2013-05-01T09:42:04Z</time>
      </trkpt>
      <trkpt lat="39.451078000" lon="-5.329595000">
        <ele>604.300000</ele>
        <time>2013-05-01T09:44:03Z</time>
      </trkpt>
      <trkpt lat="39.451129000" lon="-5.329412000">
        <ele>605.300000</ele>
        <time>2013-05-01T09:44:20Z</time>
      </trkpt>
      <trkpt lat="39.450496000" lon="-5.328834000">
        <ele>611.600000</ele>
        <time>2013-05-01T09:45:45Z</time>
      </trkpt>
      <trkpt lat="39.450130000" lon="-5.328154000">
        <ele>619.200000</ele>
        <time>2013-05-01T09:46:53Z</time>
      </trkpt>
      <trkpt lat="39.450571000" lon="-5.327650000">
        <ele>628.300000</ele>
        <time>2013-05-01T09:48:01Z</time>
      </trkpt>
      <trkpt lat="39.450967000" lon="-5.327542000">
        <ele>629.800000</ele>
        <time>2013-05-01T09:48:52Z</time>
      </trkpt>
      <trkpt lat="39.451216000" lon="-5.327724000">
        <ele>631.200000</ele>
        <time>2013-05-01T09:49:09Z</time>
      </trkpt>
      <trkpt lat="39.451749000" lon="-5.327776000">
        <ele>636.100000</ele>
        <time>2013-05-01T09:50:17Z</time>
      </trkpt>
      <trkpt lat="39.452057000" lon="-5.327367000">
        <ele>637.000000</ele>
        <time>2013-05-01T09:50:51Z</time>
      </trkpt>
      <trkpt lat="39.452357000" lon="-5.327934000">
        <ele>641.800000</ele>
        <time>2013-05-01T09:51:59Z</time>
      </trkpt>
      <trkpt lat="39.452331000" lon="-5.328199000">
        <ele>639.400000</ele>
        <time>2013-05-01T09:52:33Z</time>
      </trkpt>
      <trkpt lat="39.452476000" lon="-5.328338000">
        <ele>639.400000</ele>
        <time>2013-05-01T09:53:07Z</time>
      </trkpt>
      <trkpt lat="39.452604000" lon="-5.328240000">
        <ele>638.900000</ele>
        <time>2013-05-01T09:53:41Z</time>
      </trkpt>
    </trkseg>
  </trk>
</gpx>
